AAL1487 KPHX-KSAN
Flight info
| Callsign | AAL1487 |
|---|---|
| Flight time | 0h 54m |
| Altitude | 36000 |
| Route | FYRBD1 MOHAK J2 HOGGZ LUCKI1 |
| Aircraft | A321/M-SDE3FGHIRWY/LB1 |
Departure
| Time | 2026-04-26 02:28 |
|---|---|
| Airport | Phoenix Sky Harbor International Airport (KPHX) |
Arrival
| Time | 2026-04-26 03:22 |
|---|---|
| Airport | San Diego International Airport (KSAN) |
| Time | Latitude | Longitude | Altitude | Speed | Heading |
|---|---|---|---|---|---|
| 2026-04-26 02:06 | 33.43754 | -112.00127 | 1154 ft | 0 kts | 271° |
| 2026-04-26 02:16 | 33.43754 | -112.00126 | 1152 ft | 0 kts | 271° |
| 2026-04-26 02:18 | 33.43754 | -112.00123 | 1152 ft | 3 kts | 272° |
| 2026-04-26 02:19 | 33.43749 | -112.00094 | 1158 ft | 4 kts | 308° |
| 2026-04-26 02:19 | 33.43729 | -112.00078 | 1158 ft | 3 kts | 356° |
| 2026-04-26 02:19 | 33.43725 | -112.00077 | 1157 ft | 0 kts | 360° |
| 2026-04-26 02:22 | 33.43738 | -112.00078 | 1157 ft | 4 kts | 360° |
| 2026-04-26 02:22 | 33.43787 | -112.00077 | 1159 ft | 10 kts | 0° |
| 2026-04-26 02:22 | 33.43866 | -112.00076 | 1155 ft | 12 kts | 7° |
| 2026-04-26 02:23 | 33.43903 | -111.99994 | 1155 ft | 13 kts | 87° |
| 2026-04-26 02:23 | 33.43904 | -111.99871 | 1155 ft | 17 kts | 90° |
| 2026-04-26 02:23 | 33.43903 | -111.99717 | 1155 ft | 22 kts | 91° |
| 2026-04-26 02:23 | 33.43904 | -111.99517 | 1155 ft | 26 kts | 91° |
| 2026-04-26 02:24 | 33.43900 | -111.99325 | 1155 ft | 18 kts | 104° |
| 2026-04-26 02:24 | 33.43823 | -111.99231 | 1160 ft | 18 kts | 176° |
| 2026-04-26 02:24 | 33.43696 | -111.99230 | 1156 ft | 19 kts | 181° |
| 2026-04-26 02:24 | 33.43561 | -111.99230 | 1158 ft | 20 kts | 180° |
| 2026-04-26 02:25 | 33.43421 | -111.99230 | 1159 ft | 21 kts | 180° |
| 2026-04-26 02:25 | 33.43281 | -111.99229 | 1156 ft | 17 kts | 181° |
| 2026-04-26 02:25 | 33.43210 | -111.99264 | 1156 ft | 5 kts | 223° |
| 2026-04-26 02:25 | 33.43205 | -111.99269 | 1157 ft | 0 kts | 224° |
| 2026-04-26 02:26 | 33.43203 | -111.99271 | 1157 ft | 1 kts | 225° |
| 2026-04-26 02:26 | 33.43187 | -111.99291 | 1162 ft | 5 kts | 225° |
| 2026-04-26 02:26 | 33.43143 | -111.99338 | 1163 ft | 11 kts | 210° |
| 2026-04-26 02:27 | 33.43103 | -111.99397 | 1165 ft | 6 kts | 266° |
| 2026-04-26 02:27 | 33.43105 | -111.99550 | 1161 ft | 49 kts | 270° |
| 2026-04-26 02:27 | 33.43105 | -112.00263 | 1158 ft | 120 kts | 270° |
| 2026-04-26 02:27 | 33.43114 | -112.01489 | 1256 ft | 164 kts | 272° |
| 2026-04-26 02:28 | 33.43119 | -112.02839 | 1993 ft | 163 kts | 268° |
| 2026-04-26 02:28 | 33.43076 | -112.04206 | 2672 ft | 164 kts | 266° |
| 2026-04-26 02:28 | 33.42998 | -112.05591 | 3195 ft | 174 kts | 266° |
| 2026-04-26 02:28 | 33.42907 | -112.07130 | 3463 ft | 196 kts | 265° |
| 2026-04-26 02:29 | 33.42520 | -112.08780 | 3666 ft | 219 kts | 248° |
| 2026-04-26 02:29 | 33.41921 | -112.10572 | 3874 ft | 244 kts | 249° |
| 2026-04-26 02:29 | 33.41287 | -112.12541 | 4354 ft | 260 kts | 249° |
| 2026-04-26 02:29 | 33.40641 | -112.14582 | 5130 ft | 262 kts | 247° |
| 2026-04-26 02:30 | 33.39777 | -112.16469 | 5989 ft | 259 kts | 226° |
| 2026-04-26 02:30 | 33.38337 | -112.17718 | 6784 ft | 259 kts | 202° |
| 2026-04-26 02:30 | 33.36554 | -112.18070 | 7507 ft | 266 kts | 178° |
| 2026-04-26 02:30 | 33.34723 | -112.17548 | 8210 ft | 274 kts | 167° |
| 2026-04-26 02:31 | 33.32889 | -112.16889 | 8944 ft | 277 kts | 167° |
| 2026-04-26 02:31 | 33.31025 | -112.16220 | 9667 ft | 281 kts | 168° |
| 2026-04-26 02:31 | 33.29131 | -112.15547 | 10235 ft | 290 kts | 169° |
| 2026-04-26 02:31 | 33.27087 | -112.15304 | 10388 ft | 304 kts | 190° |
| 2026-04-26 02:32 | 33.25059 | -112.16109 | 10691 ft | 312 kts | 213° |
| 2026-04-26 02:32 | 33.23457 | -112.17835 | 11268 ft | 314 kts | 234° |
| 2026-04-26 02:32 | 33.22558 | -112.20212 | 11930 ft | 318 kts | 256° |
| 2026-04-26 02:32 | 33.22360 | -112.22864 | 12631 ft | 321 kts | 263° |
| 2026-04-26 02:33 | 33.21978 | -112.25478 | 13376 ft | 320 kts | 252° |
| 2026-04-26 02:33 | 33.21129 | -112.27896 | 14024 ft | 321 kts | 239° |
| 2026-04-26 02:33 | 33.19819 | -112.30095 | 14652 ft | 322 kts | 233° |
| 2026-04-26 02:33 | 33.18451 | -112.32217 | 15287 ft | 323 kts | 233° |
| 2026-04-26 02:34 | 33.17070 | -112.34343 | 15904 ft | 325 kts | 233° |
| 2026-04-26 02:34 | 33.15678 | -112.36478 | 16493 ft | 327 kts | 233° |
| 2026-04-26 02:34 | 33.14298 | -112.38602 | 17098 ft | 329 kts | 233° |
| 2026-04-26 02:34 | 33.12894 | -112.40770 | 17672 ft | 331 kts | 233° |
| 2026-04-26 02:35 | 33.11487 | -112.42952 | 18229 ft | 333 kts | 233° |
| 2026-04-26 02:35 | 33.10074 | -112.45143 | 18745 ft | 334 kts | 234° |
| 2026-04-26 02:35 | 33.08650 | -112.47346 | 19265 ft | 336 kts | 234° |
| 2026-04-26 02:35 | 33.07217 | -112.49558 | 19741 ft | 338 kts | 234° |
| 2026-04-26 02:36 | 33.05777 | -112.51777 | 20296 ft | 339 kts | 234° |
| 2026-04-26 02:36 | 33.04335 | -112.54002 | 20829 ft | 340 kts | 234° |
| 2026-04-26 02:36 | 33.02888 | -112.56239 | 21334 ft | 341 kts | 234° |
| 2026-04-26 02:36 | 33.01435 | -112.58484 | 21831 ft | 343 kts | 234° |
| 2026-04-26 02:37 | 32.99974 | -112.60737 | 22337 ft | 344 kts | 234° |
| 2026-04-26 02:37 | 32.98505 | -112.62999 | 22812 ft | 346 kts | 234° |
| 2026-04-26 02:37 | 32.97062 | -112.65296 | 23276 ft | 347 kts | 238° |
| 2026-04-26 02:37 | 32.95936 | -112.67827 | 23673 ft | 348 kts | 248° |
| 2026-04-26 02:38 | 32.95230 | -112.70595 | 24064 ft | 351 kts | 257° |
| 2026-04-26 02:38 | 32.94845 | -112.73469 | 24457 ft | 352 kts | 258° |
| 2026-04-26 02:38 | 32.94465 | -112.76354 | 24855 ft | 353 kts | 258° |
| 2026-04-26 02:38 | 32.94074 | -112.79243 | 25254 ft | 354 kts | 258° |
| 2026-04-26 02:39 | 32.93677 | -112.82144 | 25656 ft | 355 kts | 258° |
| 2026-04-26 02:39 | 32.93281 | -112.85048 | 26042 ft | 356 kts | 258° |
| 2026-04-26 02:39 | 32.92883 | -112.87960 | 26418 ft | 358 kts | 257° |
| 2026-04-26 02:39 | 32.92483 | -112.90890 | 26788 ft | 359 kts | 257° |
| 2026-04-26 02:40 | 32.92089 | -112.93788 | 27146 ft | 360 kts | 257° |
| 2026-04-26 02:40 | 32.91683 | -112.96772 | 27511 ft | 362 kts | 257° |
| 2026-04-26 02:40 | 32.91287 | -112.99691 | 27862 ft | 363 kts | 257° |
| 2026-04-26 02:40 | 32.90884 | -113.02666 | 28222 ft | 364 kts | 257° |
| 2026-04-26 02:41 | 32.90472 | -113.05685 | 28580 ft | 366 kts | 257° |
| 2026-04-26 02:41 | 32.90066 | -113.08639 | 28921 ft | 367 kts | 257° |
| 2026-04-26 02:41 | 32.89651 | -113.11641 | 29292 ft | 369 kts | 257° |
| 2026-04-26 02:41 | 32.89233 | -113.14658 | 29630 ft | 370 kts | 257° |
| 2026-04-26 02:42 | 32.88813 | -113.17687 | 29940 ft | 372 kts | 257° |
| 2026-04-26 02:42 | 32.88391 | -113.20730 | 30225 ft | 373 kts | 257° |
| 2026-04-26 02:42 | 32.87968 | -113.23779 | 30502 ft | 374 kts | 257° |
| 2026-04-26 02:42 | 32.87547 | -113.26831 | 30775 ft | 374 kts | 257° |
| 2026-04-26 02:43 | 32.86698 | -113.32951 | 31293 ft | 376 kts | 257° |
| 2026-04-26 02:43 | 32.86271 | -113.36017 | 31601 ft | 374 kts | 257° |
| 2026-04-26 02:43 | 32.85847 | -113.39060 | 31960 ft | 372 kts | 257° |
| 2026-04-26 02:44 | 32.85425 | -113.42083 | 32321 ft | 370 kts | 256° |
| 2026-04-26 02:44 | 32.85005 | -113.45086 | 32698 ft | 367 kts | 256° |
| 2026-04-26 02:44 | 32.84586 | -113.48072 | 33071 ft | 364 kts | 256° |
| 2026-04-26 02:44 | 32.84172 | -113.51030 | 33431 ft | 362 kts | 256° |
| 2026-04-26 02:45 | 32.83760 | -113.53972 | 33771 ft | 360 kts | 256° |
| 2026-04-26 02:45 | 32.83348 | -113.56902 | 34065 ft | 358 kts | 256° |
| 2026-04-26 02:45 | 32.82936 | -113.59811 | 34327 ft | 357 kts | 256° |
| 2026-04-26 02:45 | 32.82520 | -113.62716 | 34587 ft | 356 kts | 256° |
| 2026-04-26 02:46 | 32.82106 | -113.65614 | 34839 ft | 355 kts | 256° |
| 2026-04-26 02:46 | 32.81696 | -113.68503 | 35087 ft | 354 kts | 256° |
| 2026-04-26 02:46 | 32.81285 | -113.71389 | 35330 ft | 354 kts | 256° |
| 2026-04-26 02:46 | 32.80876 | -113.74267 | 35573 ft | 353 kts | 256° |
| 2026-04-26 02:47 | 32.80465 | -113.77150 | 35751 ft | 355 kts | 256° |
| 2026-04-26 02:47 | 32.80048 | -113.80062 | 35786 ft | 359 kts | 256° |
| 2026-04-26 02:47 | 32.79201 | -113.85960 | 35786 ft | 364 kts | 256° |
| 2026-04-26 02:48 | 32.78348 | -113.91894 | 35786 ft | 364 kts | 256° |
| 2026-04-26 02:48 | 32.77582 | -113.97848 | 35786 ft | 368 kts | 262° |
| 2026-04-26 02:49 | 32.77515 | -114.03951 | 35792 ft | 370 kts | 263° |
| 2026-04-26 02:49 | 32.77524 | -114.10074 | 35782 ft | 372 kts | 265° |
| 2026-04-26 02:50 | 32.77788 | -114.16241 | 35803 ft | 375 kts | 266° |
| 2026-04-26 02:50 | 32.78096 | -114.22432 | 35808 ft | 376 kts | 266° |
| 2026-04-26 02:51 | 32.78363 | -114.28631 | 35811 ft | 376 kts | 266° |
| 2026-04-26 02:51 | 32.78599 | -114.34822 | 35818 ft | 373 kts | 266° |
| 2026-04-26 02:52 | 32.79366 | -114.40937 | 35801 ft | 387 kts | 279° |
| 2026-04-26 02:52 | 32.81057 | -114.47036 | 35800 ft | 389 kts | 279° |
| 2026-04-26 02:53 | 32.82752 | -114.53164 | 35811 ft | 391 kts | 279° |
| 2026-04-26 02:53 | 32.84443 | -114.59308 | 35816 ft | 391 kts | 279° |
| 2026-04-26 02:54 | 32.86129 | -114.65471 | 35829 ft | 392 kts | 279° |
| 2026-04-26 02:54 | 32.87683 | -114.71654 | 35834 ft | 384 kts | 271° |
| 2026-04-26 02:55 | 32.87903 | -114.74774 | 35721 ft | 376 kts | 263° |
| 2026-04-26 02:55 | 32.87842 | -114.77870 | 35440 ft | 374 kts | 263° |
| 2026-04-26 02:55 | 32.87765 | -114.80985 | 35201 ft | 380 kts | 262° |
| 2026-04-26 02:55 | 32.87683 | -114.84140 | 34844 ft | 382 kts | 262° |
| 2026-04-26 02:56 | 32.87606 | -114.87303 | 34440 ft | 382 kts | 262° |
| 2026-04-26 02:56 | 32.87532 | -114.90457 | 34030 ft | 381 kts | 262° |
| 2026-04-26 02:56 | 32.87463 | -114.93597 | 33580 ft | 378 kts | 262° |
| 2026-04-26 02:56 | 32.87396 | -114.96711 | 33159 ft | 376 kts | 262° |
| 2026-04-26 02:57 | 32.87330 | -114.99812 | 32736 ft | 374 kts | 263° |
| 2026-04-26 02:57 | 32.87262 | -115.02894 | 32351 ft | 372 kts | 262° |
| 2026-04-26 02:57 | 32.87189 | -115.05954 | 31942 ft | 369 kts | 262° |
| 2026-04-26 02:57 | 32.87114 | -115.09006 | 31510 ft | 369 kts | 262° |
| 2026-04-26 02:58 | 32.87037 | -115.12048 | 31096 ft | 367 kts | 262° |
| 2026-04-26 02:58 | 32.86960 | -115.15078 | 30702 ft | 365 kts | 262° |
| 2026-04-26 02:58 | 32.86882 | -115.18095 | 30311 ft | 364 kts | 262° |
| 2026-04-26 02:58 | 32.86806 | -115.21092 | 29912 ft | 362 kts | 262° |
| 2026-04-26 02:59 | 32.86732 | -115.24079 | 29483 ft | 360 kts | 262° |
| 2026-04-26 02:59 | 32.86657 | -115.27053 | 29104 ft | 359 kts | 262° |
| 2026-04-26 02:59 | 32.86581 | -115.30011 | 28722 ft | 357 kts | 262° |
| 2026-04-26 02:59 | 32.86511 | -115.32949 | 28235 ft | 354 kts | 262° |
| 2026-04-26 03:00 | 32.86252 | -115.35803 | 27781 ft | 342 kts | 256° |
| 2026-04-26 03:00 | 32.85865 | -115.38570 | 27230 ft | 337 kts | 256° |
| 2026-04-26 03:00 | 32.85613 | -115.40377 | 27035 ft | 333 kts | 256° |
| 2026-04-26 03:00 | 32.85099 | -115.44035 | 26523 ft | 336 kts | 256° |
| 2026-04-26 03:01 | 32.84844 | -115.45850 | 26250 ft | 335 kts | 256° |
| 2026-04-26 03:01 | 32.84462 | -115.48581 | 25837 ft | 334 kts | 256° |
| 2026-04-26 03:01 | 32.83924 | -115.52164 | 25308 ft | 331 kts | 255° |
| 2026-04-26 03:01 | 32.83487 | -115.54843 | 24915 ft | 330 kts | 254° |
| 2026-04-26 03:02 | 32.83039 | -115.57515 | 24519 ft | 328 kts | 254° |
| 2026-04-26 03:02 | 32.82592 | -115.60172 | 24123 ft | 327 kts | 254° |
| 2026-04-26 03:02 | 32.82294 | -115.61956 | 23862 ft | 326 kts | 254° |
| 2026-04-26 03:02 | 32.81854 | -115.64598 | 23536 ft | 325 kts | 255° |
| 2026-04-26 03:03 | 32.81421 | -115.67220 | 23076 ft | 322 kts | 255° |
| 2026-04-26 03:03 | 32.80992 | -115.69830 | 22670 ft | 321 kts | 255° |
| 2026-04-26 03:03 | 32.80564 | -115.72435 | 22301 ft | 321 kts | 255° |
| 2026-04-26 03:03 | 32.80137 | -115.75032 | 21911 ft | 320 kts | 255° |
| 2026-04-26 03:04 | 32.79713 | -115.77593 | 21533 ft | 319 kts | 255° |
| 2026-04-26 03:04 | 32.79277 | -115.80212 | 21144 ft | 319 kts | 255° |
| 2026-04-26 03:04 | 32.78845 | -115.82794 | 20758 ft | 318 kts | 255° |
| 2026-04-26 03:04 | 32.78466 | -115.85344 | 20379 ft | 320 kts | 259° |
| 2026-04-26 03:05 | 32.78272 | -115.87980 | 19979 ft | 320 kts | 260° |
| 2026-04-26 03:05 | 32.78082 | -115.90607 | 19615 ft | 319 kts | 260° |
| 2026-04-26 03:05 | 32.77892 | -115.93234 | 19228 ft | 319 kts | 260° |
| 2026-04-26 03:05 | 32.77699 | -115.95861 | 18821 ft | 319 kts | 260° |
| 2026-04-26 03:06 | 32.77503 | -115.98480 | 18468 ft | 319 kts | 260° |
| 2026-04-26 03:06 | 32.77303 | -116.01100 | 18075 ft | 318 kts | 260° |
| 2026-04-26 03:06 | 32.77105 | -116.03710 | 17684 ft | 315 kts | 260° |
| 2026-04-26 03:06 | 32.76916 | -116.06259 | 17295 ft | 307 kts | 260° |
| 2026-04-26 03:07 | 32.76730 | -116.08758 | 16931 ft | 299 kts | 260° |
| 2026-04-26 03:07 | 32.76546 | -116.11212 | 16577 ft | 300 kts | 260° |
| 2026-04-26 03:07 | 32.76356 | -116.13689 | 16245 ft | 301 kts | 260° |
| 2026-04-26 03:07 | 32.76164 | -116.16158 | 15882 ft | 300 kts | 259° |
| 2026-04-26 03:08 | 32.75973 | -116.18620 | 15521 ft | 298 kts | 260° |
| 2026-04-26 03:08 | 32.75783 | -116.21071 | 15166 ft | 298 kts | 259° |
| 2026-04-26 03:08 | 32.75592 | -116.23527 | 14796 ft | 299 kts | 259° |
| 2026-04-26 03:08 | 32.75401 | -116.25976 | 14496 ft | 297 kts | 260° |
| 2026-04-26 03:09 | 32.75215 | -116.28396 | 14116 ft | 291 kts | 260° |
| 2026-04-26 03:09 | 32.75033 | -116.30771 | 13764 ft | 287 kts | 260° |
| 2026-04-26 03:09 | 32.74851 | -116.33120 | 13417 ft | 281 kts | 260° |
| 2026-04-26 03:09 | 32.74679 | -116.35389 | 13142 ft | 272 kts | 259° |
| 2026-04-26 03:10 | 32.74509 | -116.37612 | 12739 ft | 268 kts | 259° |
| 2026-04-26 03:10 | 32.74339 | -116.39801 | 12435 ft | 266 kts | 259° |
| 2026-04-26 03:10 | 32.74166 | -116.41984 | 12116 ft | 265 kts | 259° |
| 2026-04-26 03:10 | 32.73992 | -116.44160 | 11799 ft | 264 kts | 259° |
| 2026-04-26 03:11 | 32.73821 | -116.46322 | 11471 ft | 260 kts | 259° |
| 2026-04-26 03:11 | 32.73657 | -116.48418 | 11168 ft | 257 kts | 259° |
| 2026-04-26 03:11 | 32.73491 | -116.50521 | 10889 ft | 256 kts | 259° |
| 2026-04-26 03:11 | 32.73303 | -116.52627 | 10558 ft | 256 kts | 258° |
| 2026-04-26 03:12 | 32.73100 | -116.54721 | 10227 ft | 254 kts | 258° |
| 2026-04-26 03:12 | 32.72892 | -116.56797 | 9900 ft | 253 kts | 259° |
| 2026-04-26 03:12 | 32.72681 | -116.58888 | 9552 ft | 258 kts | 259° |
| 2026-04-26 03:12 | 32.72471 | -116.61010 | 9209 ft | 258 kts | 260° |
| 2026-04-26 03:13 | 32.72262 | -116.63131 | 8894 ft | 258 kts | 261° |
| 2026-04-26 03:13 | 32.72055 | -116.65249 | 8567 ft | 258 kts | 261° |
| 2026-04-26 03:13 | 32.71859 | -116.67361 | 8232 ft | 257 kts | 262° |
| 2026-04-26 03:13 | 32.71687 | -116.69478 | 7907 ft | 257 kts | 263° |
| 2026-04-26 03:14 | 32.71529 | -116.71575 | 7580 ft | 252 kts | 263° |
| 2026-04-26 03:14 | 32.71377 | -116.73635 | 7264 ft | 250 kts | 264° |
| 2026-04-26 03:14 | 32.71223 | -116.75677 | 6948 ft | 247 kts | 264° |
| 2026-04-26 03:14 | 32.71067 | -116.77694 | 6637 ft | 245 kts | 264° |
| 2026-04-26 03:15 | 32.70911 | -116.79701 | 6317 ft | 244 kts | 265° |
| 2026-04-26 03:15 | 32.70723 | -116.81692 | 5998 ft | 241 kts | 258° |
| 2026-04-26 03:15 | 32.70204 | -116.83547 | 5712 ft | 232 kts | 250° |
| 2026-04-26 03:15 | 32.69651 | -116.85304 | 5452 ft | 225 kts | 250° |
| 2026-04-26 03:16 | 32.69111 | -116.87028 | 5191 ft | 220 kts | 250° |
| 2026-04-26 03:16 | 32.68586 | -116.88715 | 4947 ft | 217 kts | 251° |
| 2026-04-26 03:16 | 32.68085 | -116.90392 | 4692 ft | 215 kts | 251° |
| 2026-04-26 03:16 | 32.67595 | -116.92065 | 4432 ft | 214 kts | 252° |
| 2026-04-26 03:17 | 32.67344 | -116.93770 | 4189 ft | 213 kts | 271° |
| 2026-04-26 03:17 | 32.67628 | -116.95507 | 3945 ft | 213 kts | 286° |
| 2026-04-26 03:17 | 32.68055 | -116.97197 | 3686 ft | 214 kts | 285° |
| 2026-04-26 03:17 | 32.68470 | -116.98881 | 3456 ft | 213 kts | 284° |
| 2026-04-26 03:18 | 32.68880 | -117.00553 | 3214 ft | 207 kts | 284° |
| 2026-04-26 03:18 | 32.69276 | -117.02174 | 2958 ft | 201 kts | 284° |
| 2026-04-26 03:18 | 32.69656 | -117.03729 | 2741 ft | 189 kts | 284° |
| 2026-04-26 03:18 | 32.70005 | -117.05156 | 2508 ft | 172 kts | 284° |
| 2026-04-26 03:19 | 32.70324 | -117.06464 | 2296 ft | 156 kts | 284° |
| 2026-04-26 03:19 | 32.70609 | -117.07631 | 2090 ft | 141 kts | 283° |
| 2026-04-26 03:19 | 32.70875 | -117.08728 | 1903 ft | 136 kts | 283° |
| 2026-04-26 03:19 | 32.71133 | -117.09797 | 1685 ft | 134 kts | 283° |
| 2026-04-26 03:20 | 32.71390 | -117.10862 | 1467 ft | 135 kts | 284° |
| 2026-04-26 03:20 | 32.71647 | -117.11926 | 1260 ft | 132 kts | 283° |
| 2026-04-26 03:20 | 32.71902 | -117.12978 | 1037 ft | 134 kts | 285° |
| 2026-04-26 03:20 | 32.72160 | -117.14041 | 836 ft | 133 kts | 283° |
| 2026-04-26 03:21 | 32.72417 | -117.15097 | 642 ft | 133 kts | 283° |
| 2026-04-26 03:21 | 32.72671 | -117.16139 | 415 ft | 132 kts | 284° |
| 2026-04-26 03:21 | 32.72922 | -117.17176 | 203 ft | 130 kts | 284° |
| 2026-04-26 03:21 | 32.73178 | -117.18214 | 34 ft | 128 kts | 284° |
| 2026-04-26 03:22 | 32.73385 | -117.19085 | 25 ft | 85 kts | 286° |
| 2026-04-26 03:22 | 32.73450 | -117.19390 | 27 ft | 19 kts | 270° |
| 2026-04-26 03:22 | 32.73426 | -117.19484 | 27 ft | 8 kts | 247° |
| 2026-04-26 03:22 | 32.73413 | -117.19527 | 27 ft | 6 kts | 252° |
| 2026-04-26 03:23 | 32.73407 | -117.19585 | 27 ft | 8 kts | 275° |
| 2026-04-26 03:23 | 32.73422 | -117.19663 | 30 ft | 11 kts | 286° |
| 2026-04-26 03:23 | 32.73444 | -117.19752 | 27 ft | 12 kts | 286° |
| 2026-04-26 03:23 | 32.73466 | -117.19846 | 27 ft | 12 kts | 285° |
| 2026-04-26 03:24 | 32.73492 | -117.19951 | 26 ft | 14 kts | 286° |
| 2026-04-26 03:24 | 32.73516 | -117.20051 | 26 ft | 11 kts | 286° |
| 2026-04-26 03:24 | 32.73514 | -117.20125 | 30 ft | 10 kts | 233° |
| 2026-04-26 03:24 | 32.73466 | -117.20133 | 25 ft | 6 kts | 169° |
| 2026-04-26 03:25 | 32.73425 | -117.20122 | 25 ft | 6 kts | 165° |
| 2026-04-26 03:25 | 32.73411 | -117.20117 | 25 ft | 0 kts | 165° |